EDDE/ERF METAR and TAF weather

Enter ICAO airport designator
Station Type Date Time Source
EDDE METAR 2022/01/29 10:20 UTC NOAA

EDDE 291020Z 25023G33KT 9999 BKN015 05/02 Q1021 TEMPO BKN014


Station Type Date Time Source
EDDE Decoded METAR 2022/01/29 10:20 UTC NOAA

Erfurt-Bindersleben, Germany (EDDE) 50-59N 010-58E 322M
Jan 29, 2022 - 05:20 AM EST / 2022.01.29 1020 UTC
Wind: from the WSW (250 degrees) at 26 MPH (23 KT) gusting to 38 MPH (33 KT):0
Visibility: greater than 7 mile(s):0
Sky conditions: mostly cloudy
Temperature: 41 F (5 C)
Dew Point: 35 F (2 C)
Relative Humidity: 80%
Pressure (altimeter): 30.15 in. Hg (1021 hPa)
ob: EDDE 291020Z 25023G33KT 9999 BKN015 05/02 Q1021 TEMPO BKN014
cycle: 10

Station Type Date Time Source
EDDE TAF 2022/01/29 06:28 UTC NOAA

TAF EDDE 290500Z 2906/3006 23014KT 9999 BKN020
BECMG 2906/2908 24015G25KT
TEMPO 2906/2918 BKN014
BECMG 2909/2911 24020G35KT PROB30
TEMPO 2917/2921 RA
TEMPO 2918/3006 27025G40KT

Example: see airport list